createdAt,value
2019-01-05T00:00:19.658Z,0.00
2019-01-05T00:01:28.652Z,0.00
2019-01-05T00:02:19.636Z,0.00
2019-01-05T00:03:19.624Z,0.00
2019-01-05T00:04:19.614Z,0.00
2019-01-05T00:05:19.600Z,0.00
2019-01-05T00:06:19.589Z,0.00
2019-01-05T00:07:28.868Z,0.00
2019-01-05T00:08:19.566Z,0.00
2019-01-05T00:09:19.556Z,0.00
2019-01-05T00:10:19.545Z,0.00
2019-01-05T00:11:19.532Z,0.00
2019-01-05T00:12:19.522Z,0.00
2019-01-05T00:13:28.518Z,0.00
2019-01-05T00:14:19.500Z,0.00
2019-01-05T00:15:19.488Z,0.00
2019-01-05T00:16:19.480Z,0.00
2019-01-05T00:17:19.464Z,0.00
2019-01-05T00:18:19.453Z,0.00
2019-01-05T00:19:28.450Z,0.00
2019-01-05T00:20:19.431Z,0.00
2019-01-05T00:21:19.784Z,0.00
2019-01-05T00:22:19.409Z,0.00
2019-01-05T00:23:19.396Z,0.00
2019-01-05T00:24:19.385Z,0.00
2019-01-05T00:25:28.382Z,0.00
2019-01-05T00:26:19.364Z,0.00
2019-01-05T00:27:19.352Z,0.00
2019-01-05T00:28:19.340Z,0.00
2019-01-05T00:29:19.394Z,0.00
2019-01-05T00:30:19.320Z,0.00
2019-01-05T00:31:28.313Z,0.00
2019-01-05T00:32:19.294Z,0.00
2019-01-05T00:33:19.283Z,0.00
2019-01-05T00:34:19.276Z,0.00
2019-01-05T00:35:19.263Z,0.00
2019-01-05T00:36:19.249Z,0.00
2019-01-05T00:37:28.246Z,0.00
2019-01-05T00:38:19.227Z,0.00
2019-01-05T00:39:19.215Z,0.00
2019-01-05T00:40:19.236Z,0.00
2019-01-05T00:41:19.192Z,0.00
2019-01-05T00:42:19.182Z,0.00
2019-01-05T00:43:28.178Z,0.00
2019-01-05T00:44:19.158Z,0.00
2019-01-05T00:45:19.148Z,0.00
2019-01-05T00:46:19.137Z,0.00
2019-01-05T00:47:19.124Z,0.00
2019-01-05T00:48:19.114Z,0.00
2019-01-05T00:49:28.110Z,0.00
2019-01-05T00:50:19.090Z,0.00
2019-01-05T00:51:19.078Z,0.00
2019-01-05T00:52:19.067Z,0.00
2019-01-05T00:53:19.056Z,0.00
2019-01-05T00:54:19.045Z,0.00
2019-01-05T00:55:28.039Z,0.00
2019-01-05T00:56:19.022Z,0.00
2019-01-05T00:57:19.012Z,0.00
2019-01-05T00:58:19.002Z,0.00
2019-01-05T00:59:18.989Z,0.00
2019-01-05T01:00:18.978Z,0.00
2019-01-05T01:01:27.972Z,0.00
2019-01-05T01:02:18.954Z,0.00
2019-01-05T01:03:18.943Z,0.00
2019-01-05T01:04:18.932Z,0.00
2019-01-05T01:05:18.921Z,0.00
2019-01-05T01:06:18.910Z,0.00
2019-01-05T01:07:27.912Z,0.00
2019-01-05T01:08:18.887Z,0.00
2019-01-05T01:09:18.875Z,0.00
2019-01-05T01:10:18.864Z,0.00
2019-01-05T01:11:18.852Z,0.00
2019-01-05T01:12:18.843Z,0.00
2019-01-05T01:13:27.838Z,0.00
2019-01-05T01:14:18.818Z,0.00
2019-01-05T01:15:18.808Z,0.00
2019-01-05T01:16:18.795Z,0.00
2019-01-05T01:17:18.785Z,0.00
2019-01-05T01:18:18.773Z,0.00
2019-01-05T01:19:27.769Z,0.00
2019-01-05T01:20:18.753Z,0.00
2019-01-05T01:21:18.740Z,0.00
2019-01-05T01:22:18.730Z,0.00
2019-01-05T01:23:18.716Z,0.00
2019-01-05T01:24:18.705Z,0.00
2019-01-05T01:25:27.702Z,0.00
2019-01-05T01:26:18.683Z,0.00
2019-01-05T01:27:18.672Z,0.00
2019-01-05T01:28:18.660Z,0.00
2019-01-05T01:29:18.650Z,0.00
2019-01-05T01:30:18.638Z,0.00
2019-01-05T01:31:27.634Z,0.00
2019-01-05T01:32:18.615Z,0.00
2019-01-05T01:33:18.606Z,0.00
2019-01-05T01:34:18.593Z,0.00
2019-01-05T01:35:18.582Z,0.00
2019-01-05T01:36:18.568Z,0.00
2019-01-05T01:37:27.567Z,0.00
2019-01-05T01:38:18.546Z,0.00
2019-01-05T01:39:18.535Z,0.00
2019-01-05T01:40:18.524Z,0.00
2019-01-05T01:41:18.517Z,0.00
2019-01-05T01:42:18.501Z,0.00
2019-01-05T01:43:27.768Z,0.00
2019-01-05T01:44:18.480Z,0.00
2019-01-05T01:45:18.468Z,0.00
2019-01-05T01:46:18.456Z,0.00
2019-01-05T01:47:18.444Z,0.00
2019-01-05T01:48:18.434Z,0.00
2019-01-05T01:49:27.430Z,0.00
2019-01-05T01:50:18.411Z,0.00
2019-01-05T01:51:18.401Z,0.00
2019-01-05T01:52:18.388Z,0.00
2019-01-05T01:53:18.377Z,0.00
2019-01-05T01:54:18.365Z,0.00
2019-01-05T01:55:27.359Z,0.00
2019-01-05T01:56:18.341Z,0.00
2019-01-05T01:57:18.331Z,0.00
2019-01-05T01:58:18.320Z,0.00
2019-01-05T01:59:18.308Z,0.00
2019-01-05T02:00:18.299Z,0.00
2019-01-05T02:01:27.291Z,0.00
2019-01-05T02:02:18.273Z,0.00
2019-01-05T02:03:18.263Z,0.00
2019-01-05T02:04:18.251Z,0.00
2019-01-05T02:05:18.239Z,0.00
2019-01-05T02:06:18.229Z,0.00
2019-01-05T02:07:27.229Z,0.00
2019-01-05T02:08:18.236Z,0.00
2019-01-05T02:09:18.193Z,0.00
2019-01-05T02:10:18.182Z,0.00
2019-01-05T02:11:18.173Z,0.00
2019-01-05T02:12:18.160Z,0.00
2019-01-05T02:13:27.445Z,0.00
2019-01-05T02:14:18.142Z,0.00
2019-01-05T02:15:18.126Z,0.00
2019-01-05T02:16:18.117Z,0.00
2019-01-05T02:17:18.105Z,0.00
2019-01-05T02:18:18.129Z,0.00
2019-01-05T02:19:27.091Z,0.00
2019-01-05T02:20:18.070Z,0.00
2019-01-05T02:21:18.058Z,0.00
2019-01-05T02:22:18.048Z,0.00
2019-01-05T02:23:18.034Z,0.00
2019-01-05T02:24:18.024Z,0.00
2019-01-05T02:25:27.020Z,0.00
2019-01-05T02:26:18.001Z,0.00
2019-01-05T02:27:17.990Z,0.00
2019-01-05T02:28:18.016Z,0.00
2019-01-05T02:29:17.966Z,0.00
2019-01-05T02:30:17.957Z,0.00
2019-01-05T02:31:26.970Z,0.00
2019-01-05T02:32:17.933Z,0.00
2019-01-05T02:33:17.925Z,0.00
2019-01-05T02:34:17.914Z,0.00
2019-01-05T02:35:17.899Z,0.00
2019-01-05T02:36:17.892Z,0.00
2019-01-05T02:37:26.884Z,0.00
2019-01-05T02:38:17.865Z,0.00
2019-01-05T02:39:17.854Z,0.00
2019-01-05T02:40:17.849Z,0.00
2019-01-05T02:41:17.831Z,0.00
2019-01-05T02:42:17.822Z,0.00
2019-01-05T02:43:27.088Z,0.00
2019-01-05T02:44:17.798Z,0.00
2019-01-05T02:45:17.788Z,0.00
2019-01-05T02:46:17.774Z,0.00
2019-01-05T02:47:17.766Z,0.00
2019-01-05T02:48:17.752Z,0.00
2019-01-05T02:49:26.751Z,0.00
2019-01-05T02:50:17.735Z,0.00
2019-01-05T02:51:17.720Z,0.00
2019-01-05T02:52:17.715Z,0.00
2019-01-05T02:53:17.696Z,0.00
2019-01-05T02:54:17.687Z,0.00
2019-01-05T02:55:26.681Z,0.00
2019-01-05T02:56:17.667Z,0.00
2019-01-05T02:57:17.735Z,0.00
2019-01-05T02:58:17.639Z,0.00
2019-01-05T02:59:17.627Z,0.00
2019-01-05T03:00:17.617Z,0.00
2019-01-05T03:01:26.614Z,0.00
2019-01-05T03:02:17.593Z,0.00
2019-01-05T03:03:17.583Z,0.00
2019-01-05T03:04:17.573Z,0.00
2019-01-05T03:05:17.564Z,0.00
2019-01-05T03:06:17.549Z,0.00
2019-01-05T03:07:26.546Z,0.00
2019-01-05T03:08:17.526Z,0.00
2019-01-05T03:09:17.516Z,0.00
2019-01-05T03:10:17.507Z,0.00
2019-01-05T03:11:17.496Z,0.00
2019-01-05T03:12:17.483Z,0.00
2019-01-05T03:13:26.759Z,0.00
2019-01-05T03:14:17.459Z,0.00
2019-01-05T03:15:17.447Z,0.00
2019-01-05T03:16:17.435Z,0.00
2019-01-05T03:17:17.425Z,0.00
2019-01-05T03:18:17.416Z,0.00
2019-01-05T03:19:26.420Z,0.00
2019-01-05T03:20:17.390Z,0.00
2019-01-05T03:21:17.382Z,0.00
2019-01-05T03:22:17.368Z,0.00
2019-01-05T03:23:17.357Z,0.00
2019-01-05T03:24:17.346Z,0.00
2019-01-05T03:25:26.342Z,0.00
2019-01-05T03:26:17.322Z,0.00
2019-01-05T03:27:17.310Z,0.00
2019-01-05T03:28:17.301Z,0.00
2019-01-05T03:29:17.289Z,0.00
2019-01-05T03:30:17.279Z,0.00
2019-01-05T03:31:26.275Z,0.00
2019-01-05T03:32:17.256Z,0.00
2019-01-05T03:33:17.244Z,0.00
2019-01-05T03:34:17.232Z,0.00
2019-01-05T03:35:17.222Z,0.00
2019-01-05T03:36:17.209Z,0.00
2019-01-05T03:37:26.207Z,0.00
2019-01-05T03:38:17.187Z,0.00
2019-01-05T03:39:17.176Z,0.00
2019-01-05T03:40:17.164Z,0.00
2019-01-05T03:41:17.211Z,0.00
2019-01-05T03:42:17.141Z,0.00
2019-01-05T03:43:26.140Z,0.00
2019-01-05T03:44:17.119Z,0.00
2019-01-05T03:45:17.106Z,0.00
2019-01-05T03:46:17.096Z,0.00
2019-01-05T03:47:17.084Z,0.00
2019-01-05T03:48:17.073Z,0.00
2019-01-05T03:49:26.075Z,0.00
2019-01-05T03:50:17.051Z,0.00
2019-01-05T03:51:17.039Z,0.00
2019-01-05T03:52:17.028Z,0.00
2019-01-05T03:53:17.017Z,0.00
2019-01-05T03:54:17.005Z,0.00
2019-01-05T03:55:26.002Z,0.00
2019-01-05T03:56:16.984Z,0.00
2019-01-05T03:57:16.975Z,0.00
2019-01-05T03:58:16.961Z,0.00
2019-01-05T03:59:16.947Z,0.00
2019-01-05T04:00:16.937Z,0.00
2019-01-05T04:01:25.935Z,0.00
2019-01-05T04:02:16.914Z,0.00
2019-01-05T04:03:16.905Z,0.00
2019-01-05T04:04:16.894Z,0.00
2019-01-05T04:05:16.880Z,0.00
2019-01-05T04:06:16.869Z,0.00
2019-01-05T04:07:25.867Z,0.00
2019-01-05T04:08:16.846Z,0.00
2019-01-05T04:09:16.835Z,0.00
2019-01-05T04:10:16.825Z,0.00
2019-01-05T04:11:16.851Z,0.00
2019-01-05T04:12:16.808Z,0.00
2019-01-05T04:13:25.799Z,0.00
2019-01-05T04:14:16.779Z,0.00
2019-01-05T04:15:16.771Z,0.00
2019-01-05T04:16:16.758Z,0.00
2019-01-05T04:17:16.745Z,0.00
2019-01-05T04:18:16.733Z,0.00
2019-01-05T04:19:26.015Z,0.00
2019-01-05T04:20:16.712Z,0.00
2019-01-05T04:21:16.699Z,0.00
2019-01-05T04:22:16.689Z,0.00
2019-01-05T04:23:16.684Z,0.00
2019-01-05T04:24:16.666Z,0.00
2019-01-05T04:25:25.662Z,0.00
2019-01-05T04:26:16.646Z,0.00
2019-01-05T04:27:16.639Z,0.00
2019-01-05T04:28:16.622Z,0.00
2019-01-05T04:29:16.609Z,0.00
2019-01-05T04:30:16.600Z,0.00
2019-01-05T04:31:25.596Z,0.00
2019-01-05T04:32:16.577Z,0.00
2019-01-05T04:33:16.564Z,0.00
2019-01-05T04:34:16.553Z,0.00
2019-01-05T04:35:16.541Z,0.00
2019-01-05T04:36:16.530Z,0.00
2019-01-05T04:37:25.527Z,0.00
2019-01-05T04:38:16.510Z,0.00
2019-01-05T04:39:16.495Z,0.00
2019-01-05T04:40:16.484Z,0.00
2019-01-05T04:41:16.475Z,0.00
2019-01-05T04:42:16.463Z,0.00
2019-01-05T04:43:25.463Z,0.00
2019-01-05T04:44:16.441Z,0.00
2019-01-05T04:45:16.427Z,0.00
2019-01-05T04:46:16.419Z,0.00
2019-01-05T04:47:16.406Z,0.00
2019-01-05T04:48:16.395Z,0.00
2019-01-05T04:49:25.663Z,0.00
2019-01-05T04:50:16.372Z,0.00
2019-01-05T04:51:16.360Z,0.00
2019-01-05T04:52:16.349Z,0.00
2019-01-05T04:53:16.338Z,0.00
2019-01-05T04:54:16.326Z,0.00
2019-01-05T04:55:25.324Z,0.00
2019-01-05T04:56:16.305Z,0.00
2019-01-05T04:57:16.291Z,0.00
2019-01-05T04:58:16.281Z,0.00
2019-01-05T04:59:16.270Z,0.00
2019-01-05T05:00:16.261Z,0.00
2019-01-05T05:01:25.255Z,0.00
2019-01-05T05:02:16.236Z,0.00
2019-01-05T05:03:16.225Z,0.00
2019-01-05T05:04:16.213Z,0.00
2019-01-05T05:05:16.202Z,0.00
2019-01-05T05:06:16.191Z,0.00
2019-01-05T05:07:25.202Z,0.00
2019-01-05T05:08:16.170Z,0.00
2019-01-05T05:09:16.159Z,0.00
2019-01-05T05:10:16.148Z,0.00
2019-01-05T05:11:16.145Z,0.00
2019-01-05T05:12:16.126Z,0.00
2019-01-05T05:13:25.958Z,0.00
2019-01-05T05:14:16.101Z,0.00
2019-01-05T05:15:16.090Z,0.00
2019-01-05T05:16:16.078Z,0.00
2019-01-05T05:17:16.068Z,0.00
2019-01-05T05:18:16.056Z,0.00
2019-01-05T05:19:25.053Z,0.00
2019-01-05T05:20:16.034Z,0.00
2019-01-05T05:21:16.021Z,0.00
2019-01-05T05:22:16.010Z,0.00
2019-01-05T05:23:15.998Z,0.00
2019-01-05T05:24:15.988Z,0.00
2019-01-05T05:25:24.986Z,0.00
2019-01-05T05:26:15.966Z,0.00
2019-01-05T05:27:15.955Z,0.00
2019-01-05T05:28:15.943Z,0.00
2019-01-05T05:29:15.932Z,0.00
2019-01-05T05:30:15.921Z,0.00
2019-01-05T05:31:24.918Z,0.00
2019-01-05T05:32:15.902Z,0.00
2019-01-05T05:33:15.887Z,0.00
2019-01-05T05:34:15.874Z,0.00
2019-01-05T05:35:15.864Z,0.00
2019-01-05T05:36:15.852Z,0.00
2019-01-05T05:37:24.850Z,0.00
2019-01-05T05:38:15.831Z,0.00
2019-01-05T05:39:15.819Z,0.00
2019-01-05T05:40:15.809Z,0.00
2019-01-05T05:41:15.796Z,0.00
2019-01-05T05:42:15.785Z,0.00
2019-01-05T05:43:24.784Z,0.00
2019-01-05T05:44:15.763Z,0.00
2019-01-05T05:45:15.752Z,0.00
2019-01-05T05:46:15.742Z,0.00
2019-01-05T05:47:15.729Z,0.00
2019-01-05T05:48:15.718Z,0.00
2019-01-05T05:49:24.978Z,0.00
2019-01-05T05:50:15.694Z,0.00
2019-01-05T05:51:15.683Z,0.00
2019-01-05T05:52:15.674Z,0.00
2019-01-05T05:53:15.661Z,0.00
2019-01-05T05:54:15.652Z,0.00
2019-01-05T05:55:24.650Z,0.00
2019-01-05T05:56:15.632Z,0.00
2019-01-05T05:57:15.614Z,0.00
2019-01-05T05:58:15.605Z,0.00
2019-01-05T05:59:15.593Z,0.00
2019-01-05T06:00:15.582Z,0.00
2019-01-05T06:01:24.580Z,0.00
2019-01-05T06:02:15.560Z,0.00
2019-01-05T06:03:15.548Z,0.00
2019-01-05T06:04:15.537Z,0.00
2019-01-05T06:05:15.524Z,0.00
2019-01-05T06:06:15.515Z,0.00
2019-01-05T06:07:24.509Z,0.00
2019-01-05T06:08:15.491Z,0.00
2019-01-05T06:09:15.480Z,0.00
2019-01-05T06:10:15.469Z,0.00
2019-01-05T06:11:15.458Z,0.00
2019-01-05T06:12:15.446Z,0.00
2019-01-05T06:13:24.442Z,0.00
2019-01-05T06:14:15.423Z,0.00
2019-01-05T06:15:15.411Z,0.00
2019-01-05T06:16:15.404Z,0.00
2019-01-05T06:17:15.391Z,0.00
2019-01-05T06:18:15.380Z,0.00
2019-01-05T06:19:24.374Z,0.00
2019-01-05T06:20:15.356Z,0.00
2019-01-05T06:21:15.343Z,0.00
2019-01-05T06:22:15.333Z,0.00
2019-01-05T06:23:15.322Z,0.00
2019-01-05T06:24:15.313Z,0.00
2019-01-05T06:25:24.307Z,0.00
2019-01-05T06:26:15.288Z,0.00
2019-01-05T06:27:15.287Z,0.00
2019-01-05T06:28:15.267Z,0.00
2019-01-05T06:29:15.254Z,0.00
2019-01-05T06:30:15.242Z,0.00
2019-01-05T06:31:24.238Z,0.00
2019-01-05T06:32:15.220Z,0.00
2019-01-05T06:33:15.210Z,0.00
2019-01-05T06:34:15.198Z,0.00
2019-01-05T06:35:15.190Z,0.00
2019-01-05T06:36:15.176Z,0.00
2019-01-05T06:37:24.172Z,0.00
2019-01-05T06:38:15.153Z,0.00
2019-01-05T06:39:15.142Z,0.00
2019-01-05T06:40:15.129Z,0.00
2019-01-05T06:41:15.119Z,0.00
2019-01-05T06:42:15.107Z,0.00
2019-01-05T06:43:24.104Z,0.00
2019-01-05T06:44:15.085Z,0.00
2019-01-05T06:45:15.074Z,0.00
2019-01-05T06:46:15.063Z,0.00
2019-01-05T06:47:15.051Z,0.00
2019-01-05T06:48:16.009Z,0.00
2019-01-05T06:49:24.037Z,0.00
2019-01-05T06:50:15.021Z,0.00
2019-01-05T06:51:15.005Z,0.00
2019-01-05T06:52:14.997Z,0.00
2019-01-05T06:53:14.984Z,0.00
2019-01-05T06:54:14.973Z,0.00
2019-01-05T06:55:24.235Z,0.00
2019-01-05T06:56:14.949Z,0.00
2019-01-05T06:57:14.939Z,0.00
2019-01-05T06:58:14.927Z,0.00
2019-01-05T06:59:14.916Z,0.00
2019-01-05T07:00:14.907Z,0.00
2019-01-05T07:01:23.901Z,0.00
2019-01-05T07:02:14.881Z,0.00
2019-01-05T07:03:14.869Z,0.00
2019-01-05T07:04:14.859Z,0.00
2019-01-05T07:05:14.851Z,0.00
2019-01-05T07:06:14.836Z,0.00
2019-01-05T07:07:23.832Z,0.00
2019-01-05T07:08:14.813Z,0.00
2019-01-05T07:09:14.804Z,0.00
2019-01-05T07:10:14.793Z,0.00
2019-01-05T07:11:14.780Z,0.00
2019-01-05T07:12:14.768Z,0.00
2019-01-05T07:13:23.766Z,0.00
2019-01-05T07:14:14.746Z,0.00
2019-01-05T07:15:14.734Z,0.00
2019-01-05T07:16:14.723Z,0.00
2019-01-05T07:17:14.713Z,0.00
2019-01-05T07:18:14.702Z,0.00
2019-01-05T07:19:23.698Z,0.00
2019-01-05T07:20:14.678Z,0.00
2019-01-05T07:21:14.667Z,0.00
2019-01-05T07:22:14.657Z,0.00
2019-01-05T07:23:14.646Z,0.00
2019-01-05T07:24:14.634Z,0.00
2019-01-05T07:25:23.918Z,0.00
2019-01-05T07:26:14.611Z,0.00
2019-01-05T07:27:14.602Z,0.00
2019-01-05T07:28:14.592Z,0.00
2019-01-05T07:29:14.576Z,0.00
2019-01-05T07:30:14.565Z,0.00
2019-01-05T07:31:23.563Z,0.00
2019-01-05T07:32:14.543Z,0.00
2019-01-05T07:33:14.533Z,0.00
2019-01-05T07:34:14.521Z,0.00
2019-01-05T07:35:14.508Z,0.00
2019-01-05T07:36:14.498Z,0.00
2019-01-05T07:37:23.494Z,0.00
2019-01-05T07:38:14.474Z,0.00
2019-01-05T07:39:14.462Z,0.00
2019-01-05T07:40:14.455Z,0.00
2019-01-05T07:41:14.441Z,0.00
2019-01-05T07:42:14.429Z,0.00
2019-01-05T07:43:23.425Z,0.00
2019-01-05T07:44:14.408Z,0.00
2019-01-05T07:45:14.396Z,4.00
2019-01-05T07:46:14.386Z,4.00
2019-01-05T07:47:14.374Z,4.00
2019-01-05T07:48:14.364Z,4.00
2019-01-05T07:49:23.360Z,4.00
2019-01-05T07:50:14.340Z,0.00
2019-01-05T07:51:14.328Z,0.00
2019-01-05T07:52:14.317Z,0.00
2019-01-05T07:53:14.306Z,4.00
2019-01-05T07:54:14.294Z,4.00
2019-01-05T07:55:23.563Z,4.00
2019-01-05T07:56:14.272Z,4.00
2019-01-05T07:57:14.262Z,4.00
2019-01-05T07:58:14.248Z,4.00
2019-01-05T07:59:14.241Z,4.00
2019-01-05T08:00:14.227Z,4.00
2019-01-05T08:01:23.222Z,4.00
2019-01-05T08:02:14.204Z,4.00
2019-01-05T08:03:14.203Z,4.00
2019-01-05T08:04:14.184Z,4.00
2019-01-05T08:05:14.173Z,4.00
2019-01-05T08:06:14.159Z,4.00
2019-01-05T08:07:23.156Z,4.00
2019-01-05T08:08:14.139Z,4.00
2019-01-05T08:09:14.127Z,8.00
2019-01-05T08:10:14.115Z,4.00
2019-01-05T08:11:14.103Z,4.00
2019-01-05T08:12:14.094Z,8.00
2019-01-05T08:13:23.403Z,4.00
2019-01-05T08:14:14.071Z,8.00
2019-01-05T08:15:14.060Z,8.00
2019-01-05T08:16:14.047Z,12.00
2019-01-05T08:17:14.036Z,12.00
2019-01-05T08:18:14.024Z,12.00
2019-01-05T08:19:23.019Z,16.00
2019-01-05T08:20:14.002Z,12.00
2019-01-05T08:21:13.990Z,20.00
2019-01-05T08:22:13.980Z,24.00
2019-01-05T08:23:13.990Z,24.00
2019-01-05T08:24:13.957Z,28.00
2019-01-05T08:25:23.226Z,28.00
2019-01-05T08:26:13.935Z,32.00
2019-01-05T08:27:13.923Z,32.00
2019-01-05T08:28:13.913Z,28.00
2019-01-05T08:29:13.901Z,32.00
2019-01-05T08:30:13.888Z,32.00
2019-01-05T08:31:22.884Z,36.00
2019-01-05T08:32:13.866Z,36.00
2019-01-05T08:33:13.856Z,32.00
2019-01-05T08:34:13.844Z,36.00
2019-01-05T08:35:13.832Z,40.00
2019-01-05T08:36:13.823Z,44.00
2019-01-05T08:37:22.817Z,44.00
2019-01-05T08:38:13.801Z,40.00
2019-01-05T08:39:13.788Z,48.00
2019-01-05T08:40:13.778Z,44.00
2019-01-05T08:41:13.830Z,40.00
2019-01-05T08:42:13.754Z,44.00
2019-01-05T08:43:22.751Z,44.00
2019-01-05T08:44:13.731Z,44.00
2019-01-05T08:45:13.720Z,52.00
2019-01-05T08:46:13.708Z,48.00
2019-01-05T08:47:13.697Z,48.00
2019-01-05T08:48:13.686Z,48.00
2019-01-05T08:49:22.754Z,48.00
2019-01-05T08:50:13.663Z,48.00
2019-01-05T08:51:13.658Z,48.00
2019-01-05T08:52:13.640Z,48.00
2019-01-05T08:53:13.630Z,44.00
2019-01-05T08:54:13.618Z,44.00
2019-01-05T08:55:22.614Z,36.00
2019-01-05T08:56:13.595Z,36.00
2019-01-05T08:57:13.585Z,36.00
2019-01-05T08:58:13.573Z,32.00
2019-01-05T08:59:13.564Z,36.00
2019-01-05T09:00:13.550Z,36.00
2019-01-05T09:01:22.545Z,36.00
2019-01-05T09:02:13.591Z,36.00
2019-01-05T09:03:13.517Z,28.00
2019-01-05T09:04:13.505Z,32.00
2019-01-05T09:05:13.496Z,32.00
2019-01-05T09:06:13.483Z,36.00
2019-01-05T09:07:22.480Z,40.00
2019-01-05T09:08:13.460Z,44.00
2019-01-05T09:09:13.449Z,44.00
2019-01-05T09:10:13.436Z,44.00
2019-01-05T09:11:13.426Z,48.00
2019-01-05T09:12:13.415Z,52.00
2019-01-05T09:13:22.412Z,52.00
2019-01-05T09:14:13.393Z,52.00
2019-01-05T09:15:13.381Z,56.00
2019-01-05T09:16:13.372Z,64.00
2019-01-05T09:17:13.358Z,64.00
2019-01-05T09:18:13.384Z,68.00
2019-01-05T09:19:22.344Z,68.00
2019-01-05T09:20:13.345Z,72.00
2019-01-05T09:21:13.313Z,80.00
2019-01-05T09:22:13.303Z,84.00
2019-01-05T09:23:13.293Z,92.00
2019-01-05T09:24:13.280Z,112.00
2019-01-05T09:25:22.275Z,112.00
2019-01-05T09:26:13.256Z,112.00
2019-01-05T09:27:13.245Z,116.00
2019-01-05T09:28:13.235Z,120.00
2019-01-05T09:29:13.223Z,120.00
2019-01-05T09:30:13.211Z,132.00
2019-01-05T09:31:22.481Z,152.00
2019-01-05T09:32:13.189Z,392.00
2019-01-05T09:33:13.178Z,280.00
2019-01-05T09:34:13.166Z,236.00
2019-01-05T09:35:13.155Z,144.00
2019-01-05T09:36:13.144Z,132.00
2019-01-05T09:37:22.139Z,276.00
2019-01-05T09:38:13.122Z,196.00
2019-01-05T09:39:13.109Z,324.00
2019-01-05T09:40:13.098Z,148.00
2019-01-05T09:41:13.090Z,120.00
2019-01-05T09:42:13.075Z,104.00
2019-01-05T09:43:22.073Z,104.00
2019-01-05T09:44:13.054Z,124.00
2019-01-05T09:45:13.041Z,128.00
2019-01-05T09:46:13.031Z,284.00
2019-01-05T09:47:13.020Z,268.00
2019-01-05T09:48:13.009Z,316.00
2019-01-05T09:49:22.004Z,400.00
2019-01-05T09:50:12.988Z,704.00
2019-01-05T09:51:12.985Z,304.00
2019-01-05T09:52:12.964Z,256.00
2019-01-05T09:53:12.953Z,868.00
2019-01-05T09:54:12.940Z,672.00
2019-01-05T09:55:21.939Z,608.00
2019-01-05T09:56:12.918Z,404.00
2019-01-05T09:57:12.907Z,908.00
2019-01-05T09:58:12.895Z,208.00
2019-01-05T09:59:12.912Z,148.00
2019-01-05T10:00:12.873Z,116.00
2019-01-05T10:01:21.867Z,84.00
2019-01-05T10:02:12.850Z,80.00
2019-01-05T10:03:12.839Z,76.00
2019-01-05T10:04:12.829Z,80.00
2019-01-05T10:05:12.817Z,88.00
2019-01-05T10:06:12.805Z,112.00
2019-01-05T10:07:21.801Z,148.00
2019-01-05T10:08:12.783Z,196.00
2019-01-05T10:09:12.772Z,148.00
2019-01-05T10:10:12.760Z,160.00
2019-01-05T10:11:12.752Z,240.00
2019-01-05T10:12:12.738Z,152.00
2019-01-05T10:13:21.736Z,224.00
2019-01-05T10:14:12.715Z,188.00
2019-01-05T10:15:12.704Z,228.00
2019-01-05T10:16:12.693Z,148.00
2019-01-05T10:17:12.683Z,132.00
2019-01-05T10:18:12.670Z,248.00
2019-01-05T10:19:21.665Z,272.00
2019-01-05T10:20:12.648Z,404.00
2019-01-05T10:21:12.636Z,400.00
2019-01-05T10:22:12.627Z,860.00
2019-01-05T10:23:12.614Z,1368.00
2019-01-05T10:24:12.602Z,400.00
2019-01-05T10:25:21.605Z,312.00
2019-01-05T10:26:12.580Z,1332.00
2019-01-05T10:27:12.569Z,952.00
2019-01-05T10:28:12.558Z,332.00
2019-01-05T10:29:12.546Z,532.00
2019-01-05T10:30:12.535Z,204.00
2019-01-05T10:31:21.530Z,176.00
2019-01-05T10:32:12.513Z,284.00
2019-01-05T10:33:12.502Z,1312.00
2019-01-05T10:34:12.489Z,272.00
2019-01-05T10:35:12.479Z,228.00
2019-01-05T10:36:12.469Z,184.00
2019-01-05T10:37:21.467Z,148.00
2019-01-05T10:38:12.445Z,92.00
2019-01-05T10:39:12.433Z,92.00
2019-01-05T10:40:12.422Z,92.00
2019-01-05T10:41:12.410Z,80.00
2019-01-05T10:42:12.399Z,76.00
2019-01-05T10:43:21.395Z,72.00
2019-01-05T10:44:12.376Z,84.00
2019-01-05T10:45:12.364Z,68.00
2019-01-05T10:46:12.354Z,72.00
2019-01-05T10:47:12.345Z,64.00
2019-01-05T10:48:12.332Z,60.00
2019-01-05T10:49:21.644Z,60.00
2019-01-05T10:50:12.308Z,72.00
2019-01-05T10:51:12.297Z,80.00
2019-01-05T10:52:12.286Z,84.00
2019-01-05T10:53:12.274Z,76.00
2019-01-05T10:54:12.266Z,68.00
2019-01-05T10:55:21.259Z,64.00
2019-01-05T10:56:12.242Z,72.00
2019-01-05T10:57:12.229Z,80.00
2019-01-05T10:58:12.219Z,84.00
2019-01-05T10:59:12.207Z,76.00
2019-01-05T11:00:12.200Z,104.00
2019-01-05T11:01:21.456Z,68.00
2019-01-05T11:02:12.174Z,68.00
2019-01-05T11:03:12.162Z,80.00
2019-01-05T11:04:12.152Z,80.00
2019-01-05T11:05:12.142Z,60.00
2019-01-05T11:06:12.129Z,68.00
2019-01-05T11:07:21.136Z,72.00
2019-01-05T11:08:12.106Z,72.00
2019-01-05T11:09:12.096Z,64.00
2019-01-05T11:10:12.086Z,56.00
2019-01-05T11:11:12.072Z,48.00
2019-01-05T11:12:12.060Z,48.00
2019-01-05T11:13:21.058Z,44.00
2019-01-05T11:14:12.043Z,44.00
2019-01-05T11:15:12.030Z,44.00
2019-01-05T11:16:12.020Z,44.00
2019-01-05T11:17:12.009Z,52.00
2019-01-05T11:18:11.995Z,52.00
2019-01-05T11:19:20.989Z,52.00
2019-01-05T11:20:11.972Z,56.00
2019-01-05T11:21:11.959Z,48.00
2019-01-05T11:22:11.951Z,44.00
2019-01-05T11:23:11.939Z,44.00
2019-01-05T11:24:11.926Z,44.00
2019-01-05T11:25:20.928Z,52.00
2019-01-05T11:26:11.903Z,56.00
2019-01-05T11:27:11.899Z,68.00
2019-01-05T11:28:11.882Z,60.00
2019-01-05T11:29:11.878Z,64.00
2019-01-05T11:30:11.882Z,68.00
2019-01-05T11:31:21.159Z,68.00
2019-01-05T11:32:11.839Z,64.00
2019-01-05T11:33:11.824Z,72.00
2019-01-05T11:34:11.821Z,64.00
2019-01-05T11:35:11.801Z,76.00
2019-01-05T11:36:11.799Z,80.00
2019-01-05T11:37:20.787Z,80.00
2019-01-05T11:38:11.774Z,84.00
2019-01-05T11:39:11.756Z,76.00
2019-01-05T11:40:11.753Z,84.00
2019-01-05T11:41:11.741Z,84.00
2019-01-05T11:42:11.722Z,80.00
2019-01-05T11:43:20.720Z,80.00
2019-01-05T11:44:11.701Z,72.00
2019-01-05T11:45:11.689Z,64.00
2019-01-05T11:46:11.681Z,64.00
2019-01-05T11:47:11.666Z,64.00
2019-01-05T11:48:11.664Z,72.00
2019-01-05T11:49:20.660Z,76.00
2019-01-05T11:50:11.632Z,80.00
2019-01-05T11:51:11.621Z,80.00
2019-01-05T11:52:11.610Z,76.00
2019-01-05T11:53:11.613Z,60.00
2019-01-05T11:54:11.593Z,56.00
2019-01-05T11:55:20.586Z,64.00
2019-01-05T11:56:11.567Z,68.00
2019-01-05T11:57:11.553Z,72.00
2019-01-05T11:58:11.556Z,76.00
2019-01-05T11:59:11.531Z,76.00
2019-01-05T12:00:11.520Z,68.00
2019-01-05T12:01:20.532Z,64.00
2019-01-05T12:02:11.496Z,60.00
2019-01-05T12:03:11.487Z,56.00
2019-01-05T12:04:11.479Z,56.00
2019-01-05T12:05:11.477Z,56.00
2019-01-05T12:06:11.455Z,48.00
2019-01-05T12:07:20.726Z,48.00
2019-01-05T12:08:11.431Z,48.00
2019-01-05T12:09:11.418Z,52.00
2019-01-05T12:10:11.407Z,56.00
2019-01-05T12:11:11.395Z,56.00
2019-01-05T12:12:11.385Z,56.00
2019-01-05T12:13:20.386Z,56.00
2019-01-05T12:14:11.361Z,60.00
2019-01-05T12:15:11.349Z,60.00
2019-01-05T12:16:11.338Z,60.00
2019-01-05T12:17:11.327Z,48.00
2019-01-05T12:18:11.316Z,44.00
2019-01-05T12:19:20.323Z,44.00
2019-01-05T12:20:11.293Z,44.00
2019-01-05T12:21:11.281Z,44.00
2019-01-05T12:22:11.271Z,36.00
2019-01-05T12:23:11.259Z,44.00
2019-01-05T12:24:11.248Z,44.00
2019-01-05T12:25:20.246Z,48.00
2019-01-05T12:26:11.225Z,48.00
2019-01-05T12:27:11.215Z,44.00
2019-01-05T12:28:11.202Z,44.00
2019-01-05T12:29:11.192Z,48.00
2019-01-05T12:30:11.184Z,44.00
2019-01-05T12:31:20.180Z,40.00
2019-01-05T12:32:11.158Z,36.00
2019-01-05T12:33:11.147Z,32.00
2019-01-05T12:34:11.139Z,28.00
2019-01-05T12:35:11.124Z,28.00
2019-01-05T12:36:11.113Z,28.00
2019-01-05T12:37:20.110Z,32.00
2019-01-05T12:38:11.090Z,28.00
2019-01-05T12:39:11.080Z,28.00
2019-01-05T12:40:11.069Z,28.00
2019-01-05T12:41:11.059Z,28.00
2019-01-05T12:42:11.049Z,28.00
2019-01-05T12:43:20.040Z,28.00
2019-01-05T12:44:11.023Z,28.00
2019-01-05T12:45:11.014Z,28.00
2019-01-05T12:46:11.003Z,24.00
2019-01-05T12:47:10.989Z,24.00
2019-01-05T12:48:10.979Z,24.00
2019-01-05T12:49:19.980Z,24.00
2019-01-05T12:50:10.957Z,20.00
2019-01-05T12:51:10.944Z,20.00
2019-01-05T12:52:10.933Z,20.00
2019-01-05T12:53:10.923Z,16.00
2019-01-05T12:54:10.911Z,20.00
2019-01-05T12:55:19.908Z,24.00
2019-01-05T12:56:10.888Z,24.00
2019-01-05T12:57:10.877Z,20.00
2019-01-05T12:58:10.866Z,24.00
2019-01-05T12:59:10.854Z,20.00
2019-01-05T13:00:10.852Z,24.00
2019-01-05T13:01:19.841Z,24.00
2019-01-05T13:02:10.823Z,24.00
2019-01-05T13:03:10.810Z,24.00
2019-01-05T13:04:10.797Z,28.00
2019-01-05T13:05:10.787Z,24.00
2019-01-05T13:06:11.575Z,24.00